createdAt,value
2017-06-28T00:00:04.627Z,985.4
2017-06-28T00:00:25.307Z,985.4
2017-06-28T00:00:46.020Z,985.4
2017-06-28T00:01:06.722Z,985.3
2017-06-28T00:01:27.402Z,985.3
2017-06-28T00:01:48.700Z,985.3
2017-06-28T00:02:09.407Z,985.3
2017-06-28T00:02:30.104Z,985.3
2017-06-28T00:02:50.794Z,985.3
2017-06-28T00:03:11.471Z,985.3
2017-06-28T00:03:32.144Z,985.3
2017-06-28T00:03:55.090Z,985.3
2017-06-28T00:04:15.767Z,985.3
2017-06-28T00:04:36.436Z,985.3
2017-06-28T00:04:57.615Z,985.3
2017-06-28T00:05:20.656Z,985.2
2017-06-28T00:05:41.330Z,985.2
2017-06-28T00:06:02.020Z,985.2
2017-06-28T00:06:22.709Z,985.2
2017-06-28T00:06:43.396Z,985.2
2017-06-28T00:07:04.651Z,985.2
2017-06-28T00:07:26.225Z,985.2
2017-06-28T00:07:48.594Z,985.2
2017-06-28T00:08:09.299Z,985.2
2017-06-28T00:08:31.629Z,985.2
2017-06-28T00:08:52.295Z,985.2
2017-06-28T00:09:13.004Z,985.2
2017-06-28T00:09:33.678Z,985.2
2017-06-28T00:09:55.169Z,985.2
2017-06-28T00:10:15.877Z,985.2
2017-06-28T00:10:36.597Z,985.2
2017-06-28T00:10:58.841Z,985.2
2017-06-28T00:11:21.130Z,985.2
2017-06-28T00:11:41.793Z,985.2
2017-06-28T00:12:02.466Z,985.1
2017-06-28T00:12:23.132Z,985.1
2017-06-28T00:12:43.797Z,985.1
2017-06-28T00:13:04.477Z,985.2
2017-06-28T00:13:25.146Z,985.1
2017-06-28T00:13:46.597Z,985.1
2017-06-28T00:14:07.318Z,985.1
2017-06-28T00:14:28.653Z,985.1
2017-06-28T00:14:49.348Z,985.1
2017-06-28T00:15:10.723Z,985.1
2017-06-28T00:15:31.401Z,985.1
2017-06-28T00:15:52.712Z,985.1
2017-06-28T00:16:14.132Z,985.1
2017-06-28T00:16:34.786Z,985.1
2017-06-28T00:16:56.193Z,985.1
2017-06-28T00:17:16.861Z,985.1
2017-06-28T00:17:39.134Z,985.1
2017-06-28T00:17:59.853Z,985.1
2017-06-28T00:18:20.558Z,985.1
2017-06-28T00:18:42.194Z,985.1
2017-06-28T00:19:02.885Z,985.1
2017-06-28T00:19:23.579Z,985.1
2017-06-28T00:19:44.249Z,985.1
2017-06-28T00:20:06.601Z,985.1
2017-06-28T00:20:27.239Z,985
2017-06-28T00:20:49.643Z,985.1
2017-06-28T00:21:10.300Z,985.1
2017-06-28T00:21:31.639Z,985.1
2017-06-28T00:21:52.338Z,985.1
2017-06-28T00:22:13.640Z,985.1
2017-06-28T00:22:34.320Z,985.1
2017-06-28T00:22:54.996Z,985.1
2017-06-28T00:23:17.169Z,985.1
2017-06-28T00:23:37.826Z,985.1
2017-06-28T00:23:58.503Z,985.1
2017-06-28T00:24:20.130Z,985.1
2017-06-28T00:24:40.832Z,985.1
2017-06-28T00:25:02.636Z,985.1
2017-06-28T00:25:25.146Z,985.1
2017-06-28T00:25:45.838Z,985.1
2017-06-28T00:26:07.292Z,985.1
2017-06-28T00:26:27.973Z,985
2017-06-28T00:26:48.646Z,985
2017-06-28T00:27:10.143Z,985.1
2017-06-28T00:27:31.607Z,985
2017-06-28T00:27:54.210Z,985
2017-06-28T00:28:15.644Z,985
2017-06-28T00:28:36.308Z,985
2017-06-28T00:28:57.000Z,985
2017-06-28T00:29:17.682Z,985
2017-06-28T00:29:39.109Z,985
2017-06-28T00:29:59.778Z,985
2017-06-28T00:30:21.216Z,985
2017-06-28T00:30:41.960Z,985
2017-06-28T00:31:03.234Z,985
2017-06-28T00:31:24.662Z,985
2017-06-28T00:31:45.355Z,985
2017-06-28T00:32:06.612Z,985
2017-06-28T00:32:27.323Z,985
2017-06-28T00:32:48.019Z,985
2017-06-28T00:33:08.689Z,985
2017-06-28T00:33:30.142Z,985
2017-06-28T00:33:50.829Z,985
2017-06-28T00:34:11.470Z,985
2017-06-28T00:34:32.128Z,985
2017-06-28T00:34:52.812Z,985
2017-06-28T00:35:13.515Z,985
2017-06-28T00:35:34.201Z,985
2017-06-28T00:35:54.881Z,985
2017-06-28T00:36:15.558Z,985
2017-06-28T00:36:36.247Z,985
2017-06-28T00:36:56.904Z,985
2017-06-28T00:37:17.644Z,985
2017-06-28T00:37:38.287Z,984.9
2017-06-28T00:37:59.731Z,985
2017-06-28T00:38:20.386Z,984.9
2017-06-28T00:38:41.724Z,985
2017-06-28T00:39:02.383Z,984.9
2017-06-28T00:39:23.084Z,985
2017-06-28T00:39:43.781Z,984.9
2017-06-28T00:40:04.488Z,984.9
2017-06-28T00:40:25.675Z,984.9
2017-06-28T00:40:47.118Z,984.9
2017-06-28T00:41:07.776Z,984.9
2017-06-28T00:41:28.446Z,984.9
2017-06-28T00:41:49.130Z,984.9
2017-06-28T00:42:09.814Z,984.9
2017-06-28T00:42:30.486Z,984.9
2017-06-28T00:42:51.170Z,984.9
2017-06-28T00:43:11.842Z,984.9
2017-06-28T00:43:32.511Z,984.9
2017-06-28T00:43:53.185Z,984.9
2017-06-28T00:44:13.854Z,984.9
2017-06-28T00:44:34.578Z,984.8
2017-06-28T00:44:55.276Z,984.8
2017-06-28T00:45:15.951Z,984.9
2017-06-28T00:45:36.622Z,984.8
2017-06-28T00:45:58.250Z,984.8
2017-06-28T00:46:18.919Z,984.8
2017-06-28T00:46:40.156Z,984.8
2017-06-28T00:47:00.862Z,984.9
2017-06-28T00:47:21.532Z,984.8
2017-06-28T00:47:42.216Z,984.8
2017-06-28T00:48:02.937Z,984.8
2017-06-28T00:48:23.623Z,984.8
2017-06-28T00:48:44.327Z,984.8
2017-06-28T00:49:04.999Z,984.8
2017-06-28T00:49:25.656Z,984.8
2017-06-28T00:49:46.325Z,984.8
2017-06-28T00:50:07.703Z,984.8
2017-06-28T00:50:28.388Z,984.8
2017-06-28T00:50:49.626Z,984.8
2017-06-28T00:51:10.325Z,984.8
2017-06-28T00:51:31.713Z,984.8
2017-06-28T00:51:52.383Z,984.8
2017-06-28T00:52:13.096Z,984.8
2017-06-28T00:52:33.812Z,984.8
2017-06-28T00:52:54.496Z,984.8
2017-06-28T00:53:15.161Z,984.8
2017-06-28T00:53:35.837Z,984.8
2017-06-28T00:53:56.567Z,984.8
2017-06-28T00:54:19.234Z,984.8
2017-06-28T00:54:39.936Z,984.8
2017-06-28T00:55:00.604Z,984.8
2017-06-28T00:55:22.256Z,984.8
2017-06-28T00:55:44.749Z,984.8
2017-06-28T00:56:05.469Z,984.8
2017-06-28T00:56:26.165Z,984.8
2017-06-28T00:56:47.746Z,984.8
2017-06-28T00:57:10.255Z,984.8
2017-06-28T00:57:31.763Z,984.8
2017-06-28T00:57:52.452Z,984.8
2017-06-28T00:58:13.167Z,984.8
2017-06-28T00:58:35.665Z,984.8
2017-06-28T00:58:56.368Z,984.8
2017-06-28T00:59:17.085Z,984.8
2017-06-28T00:59:37.757Z,984.8
2017-06-28T00:59:58.436Z,984.8
2017-06-28T01:00:19.771Z,984.8
2017-06-28T01:00:40.465Z,984.8
2017-06-28T01:01:01.142Z,984.8
2017-06-28T01:01:22.750Z,984.8
2017-06-28T01:01:43.443Z,984.8
2017-06-28T01:02:04.096Z,984.8
2017-06-28T01:02:24.774Z,984.8
2017-06-28T01:02:45.464Z,984.8
2017-06-28T01:03:06.169Z,984.7
2017-06-28T01:03:26.820Z,984.8
2017-06-28T01:03:47.510Z,984.7
2017-06-28T01:04:08.262Z,984.7
2017-06-28T01:04:28.951Z,984.7
2017-06-28T01:04:49.637Z,984.7
2017-06-28T01:05:10.280Z,984.7
2017-06-28T01:05:30.965Z,984.7
2017-06-28T01:05:51.626Z,984.7
2017-06-28T01:06:12.335Z,984.7
2017-06-28T01:06:33.027Z,984.7
2017-06-28T01:06:53.741Z,984.7
2017-06-28T01:07:14.423Z,984.6
2017-06-28T01:07:35.091Z,984.6
2017-06-28T01:07:55.756Z,984.6
2017-06-28T01:08:16.411Z,984.7
2017-06-28T01:08:37.117Z,984.7
2017-06-28T01:08:57.833Z,984.6
2017-06-28T01:09:18.495Z,984.6
2017-06-28T01:09:39.228Z,984.6
2017-06-28T01:09:59.917Z,984.6
2017-06-28T01:10:22.170Z,984.6
2017-06-28T01:10:42.842Z,984.6
2017-06-28T01:11:03.493Z,984.6
2017-06-28T01:11:24.188Z,984.5
2017-06-28T01:11:45.667Z,984.6
2017-06-28T01:12:06.324Z,984.5
2017-06-28T01:12:27.019Z,984.5
2017-06-28T01:12:47.678Z,984.5
2017-06-28T01:13:08.336Z,984.5
2017-06-28T01:13:29.025Z,984.5
2017-06-28T01:13:50.687Z,984.5
2017-06-28T01:14:11.375Z,984.5
2017-06-28T01:14:32.075Z,984.4
2017-06-28T01:14:52.739Z,984.4
2017-06-28T01:15:13.407Z,984.4
2017-06-28T01:15:34.752Z,984.4
2017-06-28T01:15:55.427Z,984.4
2017-06-28T01:16:16.074Z,984.4
2017-06-28T01:16:36.758Z,984.4
2017-06-28T01:16:57.440Z,984.4
2017-06-28T01:17:18.128Z,984.4
2017-06-28T01:17:38.845Z,984.4
2017-06-28T01:17:59.541Z,984.4
2017-06-28T01:18:20.263Z,984.3
2017-06-28T01:18:41.668Z,984.3
2017-06-28T01:19:02.337Z,984.3
2017-06-28T01:19:23.023Z,984.4
2017-06-28T01:19:43.722Z,984.4
2017-06-28T01:20:04.444Z,984.3
2017-06-28T01:20:25.667Z,984.3
2017-06-28T01:20:46.321Z,984.3
2017-06-28T01:21:07.034Z,984.4
2017-06-28T01:21:28.260Z,984.4
2017-06-28T01:21:49.703Z,984.4
2017-06-28T01:22:10.386Z,984.4
2017-06-28T01:22:31.058Z,984.4
2017-06-28T01:22:51.770Z,984.4
2017-06-28T01:23:12.451Z,984.4
2017-06-28T01:23:33.124Z,984.4
2017-06-28T01:23:53.787Z,984.4
2017-06-28T01:24:14.460Z,984.4
2017-06-28T01:24:35.139Z,984.5
2017-06-28T01:24:56.804Z,984.4
2017-06-28T01:25:17.529Z,984.4
2017-06-28T01:25:38.236Z,984.4
2017-06-28T01:25:59.771Z,984.4
2017-06-28T01:26:21.209Z,984.4
2017-06-28T01:26:42.649Z,984.4
2017-06-28T01:27:03.351Z,984.4
2017-06-28T01:27:24.679Z,984.4
2017-06-28T01:27:45.410Z,984.4
2017-06-28T01:28:06.094Z,984.3
2017-06-28T01:28:27.262Z,984.3
2017-06-28T01:28:48.013Z,984.3
2017-06-28T01:29:08.694Z,984.3
2017-06-28T01:29:29.372Z,984.3
2017-06-28T01:29:50.092Z,984.3
2017-06-28T01:30:10.784Z,984.3
2017-06-28T01:30:31.476Z,984.2
2017-06-28T01:30:52.157Z,984.3
2017-06-28T01:31:12.821Z,984.2
2017-06-28T01:31:33.522Z,984.3
2017-06-28T01:31:54.200Z,984.3
2017-06-28T01:32:14.892Z,984.2
2017-06-28T01:32:35.564Z,984.3
2017-06-28T01:32:56.282Z,984.3
2017-06-28T01:33:18.196Z,984.2
2017-06-28T01:33:38.879Z,984.2
2017-06-28T01:33:59.551Z,984.3
2017-06-28T01:34:20.797Z,984.2
2017-06-28T01:34:41.516Z,984.2
2017-06-28T01:35:02.242Z,984.2
2017-06-28T01:35:23.757Z,984.2
2017-06-28T01:35:45.276Z,984.2
2017-06-28T01:36:05.936Z,984.2
2017-06-28T01:36:26.628Z,984.2
2017-06-28T01:36:47.323Z,984.2
2017-06-28T01:37:08.098Z,984.2
2017-06-28T01:37:28.757Z,984.1
2017-06-28T01:37:49.451Z,984.2
2017-06-28T01:38:11.285Z,984.1
2017-06-28T01:38:31.959Z,984.1
2017-06-28T01:38:52.638Z,984.1
2017-06-28T01:39:13.369Z,984.1
2017-06-28T01:39:34.035Z,984.1
2017-06-28T01:39:54.686Z,984.1
2017-06-28T01:40:16.190Z,984.1
2017-06-28T01:40:37.769Z,984.1
2017-06-28T01:40:58.474Z,984.1
2017-06-28T01:41:19.148Z,984.1
2017-06-28T01:41:41.707Z,984.1
2017-06-28T01:42:02.375Z,984.1
2017-06-28T01:42:23.706Z,984.1
2017-06-28T01:42:44.396Z,984.1
2017-06-28T01:43:06.701Z,984.1
2017-06-28T01:43:28.196Z,984.1
2017-06-28T01:43:48.867Z,984.1
2017-06-28T01:44:09.539Z,984.1
2017-06-28T01:44:30.186Z,984
2017-06-28T01:44:50.844Z,984.1
2017-06-28T01:45:11.503Z,984.1
2017-06-28T01:45:32.704Z,984.1
2017-06-28T01:45:54.162Z,984
2017-06-28T01:46:15.751Z,984.1
2017-06-28T01:46:36.454Z,984
2017-06-28T01:46:57.157Z,984
2017-06-28T01:47:17.822Z,984
2017-06-28T01:47:38.513Z,984
2017-06-28T01:47:59.200Z,984
2017-06-28T01:48:21.667Z,984
2017-06-28T01:48:42.380Z,984
2017-06-28T01:49:03.802Z,983.9
2017-06-28T01:49:24.467Z,983.9
2017-06-28T01:49:46.336Z,983.9
2017-06-28T01:50:06.998Z,983.9
2017-06-28T01:50:28.197Z,983.9
2017-06-28T01:50:48.875Z,983.9
2017-06-28T01:51:10.199Z,983.9
2017-06-28T01:51:33.698Z,983.9
2017-06-28T01:51:54.376Z,983.9
2017-06-28T01:52:15.027Z,983.9
2017-06-28T01:52:36.711Z,983.9
2017-06-28T01:52:57.380Z,983.9
2017-06-28T01:53:18.070Z,983.9
2017-06-28T01:53:38.771Z,983.9
2017-06-28T01:53:59.445Z,983.9
2017-06-28T01:54:20.117Z,983.9
2017-06-28T01:54:40.778Z,983.9
2017-06-28T01:55:01.442Z,983.9
2017-06-28T01:55:22.709Z,983.9
2017-06-28T01:55:43.398Z,983.9
2017-06-28T01:56:04.077Z,983.9
2017-06-28T01:56:24.744Z,983.9
2017-06-28T01:56:45.435Z,983.9
2017-06-28T01:57:06.806Z,983.9
2017-06-28T01:57:27.467Z,983.9
2017-06-28T01:57:48.156Z,983.9
2017-06-28T01:58:08.861Z,983.9
2017-06-28T01:58:29.547Z,983.9
2017-06-28T01:58:50.248Z,983.9
2017-06-28T01:59:10.963Z,983.9
2017-06-28T01:59:32.223Z,983.9
2017-06-28T01:59:52.933Z,983.9
2017-06-28T02:00:14.282Z,983.9
2017-06-28T02:00:34.977Z,983.9
2017-06-28T02:00:55.641Z,983.9
2017-06-28T02:01:16.348Z,983.9
2017-06-28T02:01:37.674Z,983.9
2017-06-28T02:01:59.329Z,983.9
2017-06-28T02:02:20.011Z,983.9
2017-06-28T02:02:40.672Z,983.8
2017-06-28T02:03:01.394Z,983.8
2017-06-28T02:03:22.799Z,983.8
2017-06-28T02:03:43.457Z,983.8
2017-06-28T02:04:04.200Z,983.8
2017-06-28T02:04:25.788Z,983.9
2017-06-28T02:04:46.482Z,983.9
2017-06-28T02:05:07.153Z,983.8
2017-06-28T02:05:27.835Z,983.8
2017-06-28T02:05:49.312Z,983.8
2017-06-28T02:06:10.047Z,983.8
2017-06-28T02:06:30.752Z,983.8
2017-06-28T02:06:51.432Z,983.8
2017-06-28T02:07:12.781Z,983.8
2017-06-28T02:07:33.486Z,983.8
2017-06-28T02:07:54.761Z,983.8
2017-06-28T02:08:16.361Z,983.9
2017-06-28T02:08:37.072Z,983.9
2017-06-28T02:08:57.765Z,983.9
2017-06-28T02:09:19.205Z,983.9
2017-06-28T02:09:39.891Z,983.8
2017-06-28T02:10:00.576Z,983.9
2017-06-28T02:10:21.234Z,983.9
2017-06-28T02:10:41.913Z,983.9
2017-06-28T02:11:02.621Z,983.9
2017-06-28T02:11:23.291Z,983.9
2017-06-28T02:11:43.996Z,983.9
2017-06-28T02:12:04.673Z,983.9
2017-06-28T02:12:25.387Z,983.9
2017-06-28T02:12:46.078Z,983.9
2017-06-28T02:13:06.787Z,983.9
2017-06-28T02:13:28.367Z,983.9
2017-06-28T02:13:49.829Z,983.8
2017-06-28T02:14:12.214Z,983.9
2017-06-28T02:14:32.869Z,983.9
2017-06-28T02:14:53.578Z,983.9
2017-06-28T02:15:15.770Z,983.9
2017-06-28T02:15:36.429Z,983.9
2017-06-28T02:15:57.799Z,983.9
2017-06-28T02:16:18.526Z,983.9
2017-06-28T02:16:39.377Z,983.9
2017-06-28T02:17:00.216Z,983.9
2017-06-28T02:17:20.859Z,983.8
2017-06-28T02:17:42.326Z,983.9
2017-06-28T02:18:03.006Z,983.8
2017-06-28T02:18:23.649Z,983.9
2017-06-28T02:18:44.390Z,983.8
2017-06-28T02:19:05.138Z,983.8
2017-06-28T02:19:25.951Z,983.8
2017-06-28T02:19:46.622Z,983.8
2017-06-28T02:20:07.350Z,983.8
2017-06-28T02:20:28.024Z,983.8
2017-06-28T02:20:48.692Z,983.9
2017-06-28T02:21:09.365Z,983.8
2017-06-28T02:21:30.048Z,983.8
2017-06-28T02:21:50.705Z,983.8
2017-06-28T02:22:11.386Z,983.8
2017-06-28T02:22:32.788Z,983.8
2017-06-28T02:22:54.290Z,983.8
2017-06-28T02:23:14.950Z,983.8
2017-06-28T02:23:35.616Z,983.8
2017-06-28T02:23:56.278Z,983.8
2017-06-28T02:24:16.963Z,983.8
2017-06-28T02:24:38.327Z,983.8
2017-06-28T02:24:58.978Z,983.8
2017-06-28T02:25:20.282Z,983.8
2017-06-28T02:25:40.942Z,983.8
2017-06-28T02:26:01.615Z,983.8
2017-06-28T02:26:22.268Z,983.7
2017-06-28T02:26:42.920Z,983.8
2017-06-28T02:27:03.641Z,983.7
2017-06-28T02:27:24.358Z,983.7
2017-06-28T02:27:45.867Z,983.7
2017-06-28T02:28:07.229Z,983.7
2017-06-28T02:28:28.898Z,983.7
2017-06-28T02:28:49.603Z,983.7
2017-06-28T02:29:10.376Z,983.7
2017-06-28T02:29:31.057Z,983.7
2017-06-28T02:29:51.773Z,983.7
2017-06-28T02:30:12.471Z,983.7
2017-06-28T02:30:33.733Z,983.6
2017-06-28T02:30:55.360Z,983.6
2017-06-28T02:31:16.066Z,983.6
2017-06-28T02:31:37.318Z,983.6
2017-06-28T02:31:58.764Z,983.6
2017-06-28T02:32:19.441Z,983.6
2017-06-28T02:32:40.181Z,983.6
2017-06-28T02:33:01.826Z,983.6
2017-06-28T02:33:22.978Z,983.6
2017-06-28T02:33:44.817Z,983.6
2017-06-28T02:34:08.325Z,983.6
2017-06-28T02:34:28.993Z,983.6
2017-06-28T02:34:49.649Z,983.6
2017-06-28T02:35:10.331Z,983.6
2017-06-28T02:35:31.003Z,983.6
2017-06-28T02:35:51.700Z,983.6
2017-06-28T02:36:12.422Z,983.6
2017-06-28T02:36:33.958Z,983.6
2017-06-28T02:36:54.628Z,983.6
2017-06-28T02:37:16.239Z,983.6
2017-06-28T02:37:36.895Z,983.5
2017-06-28T02:37:59.238Z,983.6
2017-06-28T02:38:20.826Z,983.6
2017-06-28T02:38:42.332Z,983.6
2017-06-28T02:39:03.064Z,983.6
2017-06-28T02:39:24.247Z,983.6
2017-06-28T02:39:44.938Z,983.6
2017-06-28T02:40:06.362Z,983.6
2017-06-28T02:40:27.040Z,983.6
2017-06-28T02:40:48.240Z,983.6
2017-06-28T02:41:08.920Z,983.6
2017-06-28T02:41:29.606Z,983.6
2017-06-28T02:41:50.284Z,983.6
2017-06-28T02:42:10.999Z,983.6
2017-06-28T02:42:32.380Z,983.6
2017-06-28T02:42:54.911Z,983.7
2017-06-28T02:43:15.641Z,983.7
2017-06-28T02:43:36.340Z,983.6
2017-06-28T02:43:57.084Z,983.6
2017-06-28T02:44:17.863Z,983.6
2017-06-28T02:44:38.564Z,983.7
2017-06-28T02:44:59.827Z,983.7
2017-06-28T02:45:20.536Z,983.7
2017-06-28T02:45:41.225Z,983.7
2017-06-28T02:46:02.705Z,983.6
2017-06-28T02:46:24.258Z,983.7
2017-06-28T02:46:44.993Z,983.7
2017-06-28T02:47:06.307Z,983.6
2017-06-28T02:47:26.997Z,983.6
2017-06-28T02:47:47.677Z,983.6
2017-06-28T02:48:08.393Z,983.6
2017-06-28T02:48:29.059Z,983.6
2017-06-28T02:48:49.749Z,983.7
2017-06-28T02:49:10.429Z,983.7
2017-06-28T02:49:31.150Z,983.6
2017-06-28T02:49:51.909Z,983.6
2017-06-28T02:50:13.249Z,983.6
2017-06-28T02:50:34.753Z,983.6
2017-06-28T02:50:55.424Z,983.6
2017-06-28T02:51:16.139Z,983.6
2017-06-28T02:51:36.850Z,983.6
2017-06-28T02:51:57.511Z,983.6
2017-06-28T02:52:18.826Z,983.6
2017-06-28T02:52:40.543Z,983.5
2017-06-28T02:53:01.244Z,983.6
2017-06-28T02:53:21.935Z,983.6
2017-06-28T02:53:42.683Z,983.5
2017-06-28T02:54:03.416Z,983.5
2017-06-28T02:54:24.116Z,983.5
2017-06-28T02:54:45.376Z,983.6
2017-06-28T02:55:06.056Z,983.6
2017-06-28T02:55:26.755Z,983.5
2017-06-28T02:55:47.426Z,983.6
2017-06-28T02:56:08.215Z,983.5
2017-06-28T02:56:29.787Z,983.5
2017-06-28T02:56:50.487Z,983.5
2017-06-28T02:57:11.145Z,983.5
2017-06-28T02:57:31.820Z,983.5
2017-06-28T02:57:53.400Z,983.5
2017-06-28T02:58:14.081Z,983.4
2017-06-28T02:58:35.297Z,983.5
2017-06-28T02:58:57.854Z,983.5
2017-06-28T02:59:20.215Z,983.4
2017-06-28T02:59:42.379Z,983.4
2017-06-28T03:00:03.845Z,983.4
2017-06-28T03:00:25.263Z,983.4
2017-06-28T03:00:45.934Z,983.4
2017-06-28T03:01:06.594Z,983.4
2017-06-28T03:01:27.275Z,983.4
2017-06-28T03:01:47.956Z,983.4
2017-06-28T03:02:09.922Z,983.4
2017-06-28T03:02:30.574Z,983.3
2017-06-28T03:02:51.267Z,983.4
2017-06-28T03:03:11.921Z,983.4
2017-06-28T03:03:32.607Z,983.3
2017-06-28T03:03:53.253Z,983.3
2017-06-28T03:04:14.846Z,983.3
2017-06-28T03:04:35.511Z,983.3
2017-06-28T03:04:56.217Z,983.3
2017-06-28T03:05:17.780Z,983.3
2017-06-28T03:05:38.437Z,983.3
2017-06-28T03:05:59.838Z,983.3
2017-06-28T03:06:20.508Z,983.3
2017-06-28T03:06:41.157Z,983.3
2017-06-28T03:07:02.744Z,983.3
2017-06-28T03:07:23.455Z,983.2
2017-06-28T03:07:44.871Z,983.2
2017-06-28T03:08:05.601Z,983.3
2017-06-28T03:08:26.333Z,983.2
2017-06-28T03:08:47.768Z,983.3
2017-06-28T03:09:10.397Z,983.2
2017-06-28T03:09:32.328Z,983.2
2017-06-28T03:09:53.027Z,983.2
2017-06-28T03:10:13.703Z,983.2
2017-06-28T03:10:35.374Z,983.2
2017-06-28T03:10:56.039Z,983.2
2017-06-28T03:11:17.284Z,983.2
2017-06-28T03:11:37.968Z,983.2
2017-06-28T03:11:58.667Z,983.2
2017-06-28T03:12:19.341Z,983.2
2017-06-28T03:12:40.814Z,983.2
2017-06-28T03:13:01.496Z,983.2
2017-06-28T03:13:22.155Z,983.2
2017-06-28T03:13:43.472Z,983.2
2017-06-28T03:14:04.144Z,983.2
2017-06-28T03:14:25.819Z,983.2
2017-06-28T03:14:47.508Z,983.2
2017-06-28T03:15:08.184Z,983.2
2017-06-28T03:15:28.656Z,983.2
2017-06-28T03:15:50.267Z,983.2
2017-06-28T03:16:10.947Z,983.2
2017-06-28T03:16:32.264Z,983.2
2017-06-28T03:16:52.953Z,983.2
2017-06-28T03:17:13.627Z,983.2
2017-06-28T03:17:34.664Z,983.2
2017-06-28T03:17:55.354Z,983.2
2017-06-28T03:18:16.008Z,983.1
2017-06-28T03:18:37.361Z,983.2
2017-06-28T03:18:58.985Z,983.2
2017-06-28T03:19:21.870Z,983.2
2017-06-28T03:19:43.287Z,983.2
2017-06-28T03:20:04.990Z,983.2
2017-06-28T03:20:25.761Z,983.1
2017-06-28T03:20:46.477Z,983.1
2017-06-28T03:21:07.191Z,983.1
2017-06-28T03:21:27.916Z,983.2
2017-06-28T03:21:49.387Z,983.2
2017-06-28T03:22:10.083Z,983.2
2017-06-28T03:22:30.804Z,983.2
2017-06-28T03:22:51.489Z,983.1
2017-06-28T03:23:12.143Z,983.2
2017-06-28T03:23:33.759Z,983.2
2017-06-28T03:23:55.359Z,983.2
2017-06-28T03:24:16.041Z,983.2
2017-06-28T03:24:36.730Z,983.2
2017-06-28T03:24:57.430Z,983.2
2017-06-28T03:25:18.106Z,983.1
2017-06-28T03:25:38.773Z,983.1
2017-06-28T03:26:00.270Z,983.1
2017-06-28T03:26:21.869Z,983.1
2017-06-28T03:26:42.526Z,983.1
2017-06-28T03:27:03.896Z,983.1
2017-06-28T03:27:24.565Z,983.1
2017-06-28T03:27:45.825Z,983.1
2017-06-28T03:28:06.664Z,983.1
2017-06-28T03:28:27.962Z,983.1
2017-06-28T03:28:48.630Z,983.1
2017-06-28T03:29:09.850Z,983.1
2017-06-28T03:29:30.523Z,983.1
2017-06-28T03:29:51.179Z,983.1
2017-06-28T03:30:11.836Z,983
2017-06-28T03:30:32.516Z,983.1
2017-06-28T03:30:53.196Z,983.1
2017-06-28T03:31:13.880Z,983
2017-06-28T03:31:34.529Z,983.1
2017-06-28T03:31:55.228Z,983.1
2017-06-28T03:32:16.860Z,983.1
2017-06-28T03:32:37.567Z,983.1
2017-06-28T03:32:58.245Z,983.1
2017-06-28T03:33:18.913Z,983.1
2017-06-28T03:33:39.607Z,983.1
2017-06-28T03:34:00.285Z,983.1
2017-06-28T03:34:20.964Z,983.1
2017-06-28T03:34:41.628Z,983.1
2017-06-28T03:35:02.297Z,983.1
2017-06-28T03:35:22.964Z,983.1
2017-06-28T03:35:43.618Z,983.1
2017-06-28T03:36:05.271Z,983.1
2017-06-28T03:36:25.947Z,983.1
2017-06-28T03:36:47.365Z,983.1
2017-06-28T03:37:08.045Z,983.1
2017-06-28T03:37:28.714Z,983
2017-06-28T03:37:50.377Z,983.1
2017-06-28T03:38:11.850Z,983.1
2017-06-28T03:38:32.517Z,983
2017-06-28T03:38:53.770Z,983.1
2017-06-28T03:39:14.435Z,983.1
2017-06-28T03:39:35.146Z,983.1
2017-06-28T03:39:55.861Z,983.1
2017-06-28T03:40:17.278Z,983.1
2017-06-28T03:40:37.929Z,983.1
2017-06-28T03:40:58.640Z,983.1
2017-06-28T03:41:19.319Z,983.1
2017-06-28T03:41:39.970Z,983
2017-06-28T03:42:00.622Z,983.1
2017-06-28T03:42:21.280Z,983
2017-06-28T03:42:42.007Z,983
2017-06-28T03:43:03.300Z,983
2017-06-28T03:43:23.972Z,983
2017-06-28T03:43:44.655Z,983
2017-06-28T03:44:05.366Z,983
2017-06-28T03:44:26.772Z,983
2017-06-28T03:44:48.279Z,983
2017-06-28T03:45:08.955Z,983
2017-06-28T03:45:29.625Z,983
2017-06-28T03:45:50.301Z,983
2017-06-28T03:46:10.957Z,983
2017-06-28T03:46:31.614Z,983.1
2017-06-28T03:46:52.323Z,983
2017-06-28T03:47:12.995Z,983
2017-06-28T03:47:33.696Z,983
2017-06-28T03:47:54.375Z,983.1
2017-06-28T03:48:15.035Z,983.1
2017-06-28T03:48:36.277Z,983
2017-06-28T03:48:57.858Z,983.1
2017-06-28T03:49:19.277Z,983
2017-06-28T03:49:39.969Z,983.1
2017-06-28T03:50:01.370Z,983.1
2017-06-28T03:50:22.029Z,983.1
2017-06-28T03:50:43.366Z,983.1
2017-06-28T03:51:04.776Z,983.2
2017-06-28T03:51:25.463Z,983.1
2017-06-28T03:51:46.139Z,983.1
2017-06-28T03:52:06.817Z,983.1
2017-06-28T03:52:27.511Z,983.1
2017-06-28T03:52:48.196Z,983.1
2017-06-28T03:53:08.898Z,983.1
2017-06-28T03:53:29.584Z,983.1
2017-06-28T03:53:50.248Z,983.1
2017-06-28T03:54:10.906Z,983.1
2017-06-28T03:54:32.779Z,983.1
2017-06-28T03:54:55.790Z,983.1
2017-06-28T03:55:16.482Z,983.1
2017-06-28T03:55:37.884Z,983.1
2017-06-28T03:55:58.538Z,983.1
2017-06-28T03:56:19.184Z,983.1
2017-06-28T03:56:39.849Z,983.1
2017-06-28T03:57:00.514Z,983.1
2017-06-28T03:57:21.174Z,983.1
2017-06-28T03:57:41.857Z,983.1
2017-06-28T03:58:02.557Z,983.1
2017-06-28T03:58:23.216Z,983.1
2017-06-28T03:58:43.903Z,983.1
2017-06-28T03:59:04.574Z,983.1
2017-06-28T03:59:25.803Z,983.1
2017-06-28T03:59:46.491Z,983
2017-06-28T04:00:07.175Z,983.1
2017-06-28T04:00:27.846Z,983
2017-06-28T04:00:49.320Z,983
2017-06-28T04:01:10.884Z,983
2017-06-28T04:01:32.346Z,983
2017-06-28T04:01:53.046Z,983
2017-06-28T04:02:13.708Z,983
2017-06-28T04:02:34.436Z,983
2017-06-28T04:02:55.167Z,983
2017-06-28T04:03:15.861Z,983
2017-06-28T04:03:37.882Z,983
2017-06-28T04:03:58.562Z,983
2017-06-28T04:04:19.259Z,983
2017-06-28T04:04:39.949Z,983.1
2017-06-28T04:05:01.360Z,983.1
2017-06-28T04:05:22.033Z,983
2017-06-28T04:05:42.713Z,983
2017-06-28T04:06:03.392Z,983
2017-06-28T04:06:24.072Z,983
2017-06-28T04:06:44.764Z,983
2017-06-28T04:07:05.448Z,983
2017-06-28T04:07:26.105Z,983
2017-06-28T04:07:46.820Z,983
2017-06-28T04:08:07.493Z,983
2017-06-28T04:08:28.165Z,983
2017-06-28T04:08:50.343Z,983
2017-06-28T04:09:11.024Z,983
2017-06-28T04:09:32.295Z,983
2017-06-28T04:09:52.958Z,983
2017-06-28T04:10:14.366Z,983
2017-06-28T04:10:35.019Z,983
2017-06-28T04:10:55.700Z,983
2017-06-28T04:11:16.391Z,983
2017-06-28T04:11:37.093Z,983
2017-06-28T04:11:57.768Z,983
2017-06-28T04:12:19.312Z,983
2017-06-28T04:12:39.962Z,983
2017-06-28T04:13:00.679Z,983
2017-06-28T04:13:21.343Z,983
2017-06-28T04:13:42.013Z,983
2017-06-28T04:14:03.386Z,982.9
2017-06-28T04:14:24.072Z,983
2017-06-28T04:14:44.749Z,983
2017-06-28T04:15:06.268Z,983
2017-06-28T04:15:26.975Z,983
2017-06-28T04:15:47.656Z,982.9
2017-06-28T04:16:08.378Z,982.9
2017-06-28T04:16:29.806Z,982.9
2017-06-28T04:16:50.498Z,983
2017-06-28T04:17:11.170Z,983
2017-06-28T04:17:31.860Z,982.9
2017-06-28T04:17:52.543Z,982.9
2017-06-28T04:18:13.208Z,983
2017-06-28T04:18:34.797Z,982.9
2017-06-28T04:18:55.487Z,983
2017-06-28T04:19:16.808Z,982.9
2017-06-28T04:19:37.466Z,983
2017-06-28T04:19:58.114Z,982.9
2017-06-28T04:20:18.769Z,983
2017-06-28T04:20:40.313Z,982.9
2017-06-28T04:21:01.018Z,982.9
2017-06-28T04:21:21.700Z,982.9
2017-06-28T04:21:42.370Z,982.9
2017-06-28T04:22:03.043Z,982.9
2017-06-28T04:22:23.700Z,982.9
2017-06-28T04:22:45.775Z,982.9
2017-06-28T04:23:06.499Z,982.9
2017-06-28T04:23:27.904Z,982.9
2017-06-28T04:23:48.565Z,982.9
2017-06-28T04:24:10.813Z,982.9
2017-06-28T04:24:31.518Z,982.9
2017-06-28T04:24:52.197Z,982.9
2017-06-28T04:25:12.865Z,982.9
2017-06-28T04:25:33.540Z,983
2017-06-28T04:25:54.207Z,982.9
2017-06-28T04:26:14.903Z,982.9
2017-06-28T04:26:35.636Z,983
2017-06-28T04:26:56.311Z,983
2017-06-28T04:27:16.990Z,983
2017-06-28T04:27:37.680Z,983
2017-06-28T04:27:58.369Z,983
2017-06-28T04:28:19.069Z,982.9
2017-06-28T04:28:39.740Z,983
2017-06-28T04:29:00.428Z,983
2017-06-28T04:29:21.097Z,983
2017-06-28T04:29:42.388Z,983
2017-06-28T04:30:03.075Z,983
2017-06-28T04:30:24.450Z,983
2017-06-28T04:30:45.152Z,983
2017-06-28T04:31:05.822Z,983
2017-06-28T04:31:26.506Z,983
2017-06-28T04:31:47.903Z,983
2017-06-28T04:32:08.593Z,983
2017-06-28T04:32:29.890Z,983
2017-06-28T04:32:50.576Z,982.9